Terminal Aerodrome Forecast
Issued by NWS Charleston, WV

Home | Current Version | Previous Version | Text Only | Print | Product List | Glossary On
Versions: 1 2 3 4 5 6 7 8 9 10 11 12 13 14 15 16 17 18 19 20 21 22 23 24 25 26 27
000
FTUS41 KRLX 211100
TAFHTS
TAF
KHTS 211133Z 2112/2212 21003KT P6SM BKN100
     FM211500 24004KT P6SM BKN035
     FM211600 23004KT P6SM VCTS BKN035CB
     FM220200 00000KT P6SM VCTS BKN040CB
     FM220400 00000KT P6SM BKN040
     FM220500 00000KT 6SM BR BKN040
     FM220900 00000KT 3SM BR BKN040=

USA.gov is the U.S. government's official web portal to all federal, state and local government web resources and services.